createdAt,value
2022-10-11T00:01:21.042Z,101199.97
2022-10-11T00:03:47.643Z,101208.56
2022-10-11T00:06:14.171Z,101206.81
2022-10-11T00:08:40.704Z,101209.44
2022-10-11T00:11:08.168Z,101211.97
2022-10-11T00:13:34.945Z,101209.34
2022-10-11T00:16:01.879Z,101209.34
2022-10-11T00:18:29.598Z,101206.72
2022-10-11T00:21:08.872Z,101212.72
2022-10-11T00:23:36.376Z,101214.41
2022-10-11T00:26:07.621Z,101216.94
2022-10-11T00:28:36.291Z,101208.31
2022-10-11T00:31:08.713Z,101211.69
2022-10-11T00:33:36.650Z,101208.22
2022-10-11T00:36:05.196Z,101212.50
2022-10-11T00:38:32.249Z,101224.47
2022-10-11T00:41:00.183Z,101223.59
2022-10-11T00:43:29.354Z,101220.13
2022-10-11T00:48:50.801Z,101221.56
2022-10-11T00:51:23.764Z,101225.97
2022-10-11T00:53:51.672Z,101226.78
2022-10-11T00:56:27.612Z,101226.72
2022-10-11T00:58:55.849Z,101230.13
2022-10-11T01:01:22.514Z,101230.09
2022-10-11T01:03:49.276Z,101231.81
2022-10-11T01:06:16.012Z,101230.00
2022-10-11T01:08:43.311Z,101227.41
2022-10-11T01:11:14.951Z,101226.50
2022-10-11T01:13:58.317Z,101231.63
2022-10-11T01:16:42.693Z,101226.38
2022-10-11T01:21:53.983Z,101230.69
2022-10-11T01:30:32.093Z,101222.78
2022-10-11T01:33:13.462Z,101224.38
2022-10-11T01:35:48.784Z,101226.97
2022-10-11T01:38:38.621Z,101215.59
2022-10-11T01:41:09.413Z,101215.31
2022-10-11T01:43:39.438Z,101218.91
2022-10-11T01:46:08.761Z,101220.66
2022-10-11T01:48:48.724Z,101214.59
2022-10-11T01:51:15.961Z,101212.00
2022-10-11T01:57:00.984Z,101211.81
2022-10-11T02:06:04.455Z,101207.13
2022-10-11T02:11:16.292Z,101214.75
2022-10-11T02:13:50.717Z,101208.50
2022-10-11T02:16:22.294Z,101208.22
2022-10-11T02:18:52.954Z,101208.03
2022-10-11T02:21:22.058Z,101210.50
2022-10-11T02:23:53.855Z,101210.38
2022-10-11T02:26:21.948Z,101207.75
2022-10-11T02:28:52.581Z,101199.09
2022-10-11T02:31:20.736Z,101202.50
2022-10-11T02:33:55.721Z,101195.63
2022-10-11T02:36:30.181Z,101196.47
2022-10-11T02:39:12.329Z,101195.50
2022-10-11T02:41:40.738Z,101194.69
2022-10-11T02:44:13.429Z,101197.25
2022-10-11T02:46:41.519Z,101188.63
2022-10-11T02:49:08.900Z,101193.78
2022-10-11T02:51:36.217Z,101194.56
2022-10-11T02:54:02.796Z,101193.56
2022-10-11T02:56:29.343Z,101195.22
2022-10-11T02:58:56.024Z,101197.75
2022-10-11T03:01:22.726Z,101195.97
2022-10-11T03:03:49.318Z,101195.91
2022-10-11T03:06:15.979Z,101195.03
2022-10-11T03:08:42.704Z,101194.09
2022-10-11T03:11:09.259Z,101188.03
2022-10-11T03:13:35.802Z,101200.84
2022-10-11T03:16:03.921Z,101198.22
2022-10-11T03:18:31.262Z,101194.75
2022-10-11T03:20:57.792Z,101192.06
2022-10-11T03:23:24.365Z,101188.53
2022-10-11T03:25:52.104Z,101193.69
2022-10-11T03:28:19.614Z,101184.22
2022-10-11T03:30:50.906Z,101189.38
2022-10-11T03:33:18.084Z,101192.78
2022-10-11T03:35:45.964Z,101191.84
2022-10-11T03:38:15.093Z,101197.72
2022-10-11T03:40:43.067Z,101194.22
2022-10-11T03:43:10.588Z,101188.16
2022-10-11T03:45:37.626Z,101184.63
2022-10-11T03:48:04.515Z,101188.88
2022-10-11T03:50:31.287Z,101193.91
2022-10-11T03:52:57.847Z,101187.00
2022-10-11T03:55:24.454Z,101188.66
2022-10-11T03:57:50.992Z,101191.16
2022-10-11T04:00:17.727Z,101194.56
2022-10-11T04:02:44.453Z,101198.84
2022-10-11T04:05:12.664Z,101202.22
2022-10-11T04:07:40.092Z,101206.53
2022-10-11T04:10:07.296Z,101214.97
2022-10-11T04:12:34.510Z,101215.81
2022-10-11T04:15:01.028Z,101210.56
2022-10-11T04:17:27.549Z,101209.59
2022-10-11T04:19:54.081Z,101206.03
2022-10-11T04:22:20.894Z,101211.84
2022-10-11T04:24:47.453Z,101210.88
2022-10-11T04:27:13.980Z,101215.97
2022-10-11T04:29:40.540Z,101218.41
2022-10-11T04:32:07.148Z,101224.38
2022-10-11T04:34:33.721Z,101219.06
2022-10-11T04:37:00.296Z,101221.59
2022-10-11T04:39:26.810Z,101218.09
2022-10-11T04:41:53.364Z,101216.38
2022-10-11T04:44:19.894Z,101215.47
2022-10-11T04:46:46.435Z,101223.13
2022-10-11T04:49:12.982Z,101225.69
2022-10-11T04:51:39.515Z,101222.25
2022-10-11T04:54:06.099Z,101224.78
2022-10-11T04:56:32.714Z,101234.19
2022-10-11T04:58:59.230Z,101238.31
2022-10-11T05:01:25.781Z,101236.56
2022-10-11T05:03:52.321Z,101251.09
2022-10-11T05:06:18.973Z,101251.78
2022-10-11T05:08:45.629Z,101255.06
2022-10-11T05:11:15.785Z,101248.94
2022-10-11T05:13:43.945Z,101242.03
2022-10-11T05:16:11.777Z,101238.53
2022-10-11T05:18:39.563Z,101246.19
2022-10-11T05:23:43.116Z,101256.44
2022-10-11T05:26:09.847Z,101251.31
2022-10-11T05:28:36.781Z,101249.63
2022-10-11T05:31:04.093Z,101247.88
2022-10-11T05:33:30.782Z,101239.28
2022-10-11T05:35:57.319Z,101252.97
2022-10-11T05:38:24.029Z,101252.13
2022-10-11T05:40:51.329Z,101253.03
2022-10-11T05:43:18.358Z,101247.88
2022-10-11T05:45:45.450Z,101251.31
2022-10-11T05:48:13.066Z,101259.00
2022-10-11T05:50:39.928Z,101259.00
2022-10-11T05:53:06.915Z,101254.59
2022-10-11T05:55:42.981Z,101257.97
2022-10-11T05:58:14.091Z,101255.41
2022-10-11T06:00:41.334Z,101256.25
2022-10-11T06:03:10.492Z,101254.50
2022-10-11T06:05:37.174Z,101258.75
2022-10-11T06:08:06.127Z,101257.88
2022-10-11T06:10:33.138Z,101257.75
2022-10-11T06:12:59.773Z,101243.97
2022-10-11T06:15:26.625Z,101259.38
2022-10-11T06:17:53.267Z,101252.50
2022-10-11T06:20:19.836Z,101251.63
2022-10-11T06:22:46.413Z,101263.56
2022-10-11T06:25:12.981Z,101262.78
2022-10-11T06:27:39.513Z,101261.00
2022-10-11T06:30:07.407Z,101260.22
2022-10-11T06:32:34.040Z,101265.34
2022-10-11T06:35:00.580Z,101265.44
2022-10-11T06:37:27.117Z,101262.09
2022-10-11T06:39:53.644Z,101268.13
2022-10-11T06:42:20.240Z,101274.22
2022-10-11T06:44:46.785Z,101269.16
2022-10-11T06:47:13.328Z,101266.66
2022-10-11T06:49:39.883Z,101272.75
2022-10-11T06:52:06.444Z,101266.84
2022-10-11T06:54:32.981Z,101274.69
2022-10-11T06:56:59.535Z,101279.94
2022-10-11T06:59:26.111Z,101274.09
2022-10-11T07:01:52.616Z,101279.44
2022-10-11T07:04:19.147Z,101280.53
2022-10-11T07:06:45.664Z,101284.94
2022-10-11T07:09:12.240Z,101282.63
2022-10-11T07:11:38.917Z,101290.53
2022-10-11T07:14:07.904Z,101285.63
2022-10-11T07:16:36.381Z,101286.66
2022-10-11T07:19:04.922Z,101286.09
2022-10-11T07:21:33.970Z,101295.72
2022-10-11T07:24:01.246Z,101296.81
2022-10-11T07:26:31.447Z,101297.91
2022-10-11T07:29:00.665Z,101299.00
2022-10-11T07:31:27.406Z,101304.47
2022-10-11T07:33:54.269Z,101304.09
2022-10-11T07:36:25.563Z,101311.31
2022-10-11T07:38:52.124Z,101310.88
2022-10-11T07:41:18.791Z,101307.84
2022-10-11T07:43:47.790Z,101309.13
2022-10-11T07:46:14.389Z,101301.84
2022-10-11T07:48:41.749Z,101311.72
2022-10-11T07:54:04.704Z,101304.91
2022-10-11T07:56:33.721Z,101314.88
2022-10-11T07:59:03.622Z,101315.75
2022-10-11T08:01:31.110Z,101313.25
2022-10-11T08:03:58.901Z,101306.16
2022-10-11T08:06:29.821Z,101315.59
2022-10-11T08:08:59.464Z,101318.72
2022-10-11T08:11:28.934Z,101319.50
2022-10-11T08:13:55.778Z,101319.75
2022-10-11T08:16:22.293Z,101324.25
2022-10-11T08:18:48.996Z,101325.03
2022-10-11T08:21:17.817Z,101325.84
2022-10-11T08:23:44.587Z,101317.72
2022-10-11T08:26:11.472Z,101318.16
2022-10-11T08:28:38.550Z,101319.41
2022-10-11T08:31:05.631Z,101321.38
2022-10-11T08:33:32.640Z,101318.88
2022-10-11T08:35:59.199Z,101320.47
2022-10-11T08:38:25.746Z,101318.22
2022-10-11T08:40:55.853Z,101317.41
2022-10-11T08:46:24.339Z,101331.31
2022-10-11T08:48:52.220Z,101324.09
2022-10-11T08:51:24.551Z,101323.91
2022-10-11T08:54:06.434Z,101322.84
2022-10-11T08:56:37.314Z,101315.81
2022-10-11T08:59:14.433Z,101324.25
2022-10-11T09:01:58.210Z,101320.19
2022-10-11T09:04:24.847Z,101324.94
2022-10-11T09:07:05.157Z,101326.25
2022-10-11T09:10:03.688Z,101330.69
2022-10-11T09:12:57.364Z,101322.38
2022-10-11T09:26:33.767Z,101319.94
2022-10-11T09:29:40.129Z,101328.56
2022-10-11T09:32:15.008Z,101331.66
2022-10-11T09:34:42.022Z,101329.19
2022-10-11T09:39:58.819Z,101324.25
2022-10-11T09:42:25.320Z,101319.13
2022-10-11T09:44:52.456Z,101325.66
2022-10-11T09:47:24.134Z,101320.50
2022-10-11T09:49:57.485Z,101313.28
2022-10-11T09:52:24.960Z,101323.13
2022-10-11T09:54:55.471Z,101321.63
2022-10-11T09:57:26.320Z,101322.75
2022-10-11T10:00:21.541Z,101315.53
2022-10-11T10:02:49.738Z,101312.78
2022-10-11T10:10:49.582Z,101313.56
2022-10-11T10:15:56.460Z,101313.56
2022-10-11T10:21:01.514Z,101306.00
2022-10-11T10:23:31.807Z,101311.31
2022-10-11T10:26:20.834Z,101301.53
2022-10-11T10:35:05.224Z,101296.78
2022-10-11T10:37:38.784Z,101308.13
2022-10-11T10:40:13.236Z,101295.31
2022-10-11T10:42:40.202Z,101299.91
2022-10-11T10:45:20.893Z,101297.41
2022-10-11T10:48:17.682Z,101295.09
2022-10-11T10:53:34.340Z,101290.09
2022-10-11T10:56:12.278Z,101293.81
2022-10-11T11:01:22.946Z,101287.53
2022-10-11T11:04:24.378Z,101278.03
2022-10-11T11:06:58.717Z,101291.19
2022-10-11T11:18:37.514Z,101275.84
2022-10-11T11:23:50.649Z,101281.16
2022-10-11T11:26:56.319Z,101288.75
2022-10-11T11:30:02.750Z,101280.53
2022-10-11T11:35:45.311Z,101277.94
2022-10-11T11:38:27.146Z,101285.13
2022-10-11T11:40:59.309Z,101285.41
2022-10-11T11:43:34.872Z,101280.28
2022-10-11T11:46:10.405Z,101275.13
2022-10-11T11:48:38.723Z,101276.97
2022-10-11T11:59:34.554Z,101261.38
2022-10-11T12:04:53.642Z,101279.13
2022-10-11T12:07:24.755Z,101271.50
2022-10-11T12:10:13.905Z,101263.94
2022-10-11T12:12:41.158Z,101263.56
2022-10-11T12:18:04.717Z,101255.47
2022-10-11T12:20:40.785Z,101248.47
2022-10-11T12:31:35.603Z,101236.16
2022-10-11T12:42:23.173Z,101239.44
2022-10-11T12:48:04.486Z,101234.38
2022-10-11T12:56:25.843Z,101218.63
2022-10-11T12:59:02.956Z,101212.34
2022-10-11T13:01:36.329Z,101215.50
2022-10-11T13:04:08.692Z,101216.97
2022-10-11T13:06:54.655Z,101211.69
2022-10-11T13:12:21.556Z,101209.41
2022-10-11T13:15:00.708Z,101205.91
2022-10-11T13:17:38.282Z,101200.72
2022-10-11T13:22:46.065Z,101191.53
2022-10-11T13:25:18.036Z,101186.47
2022-10-11T13:27:45.825Z,101197.78
2022-10-11T13:30:20.502Z,101189.97
2022-10-11T13:32:47.869Z,101189.94
2022-10-11T13:35:34.293Z,101181.28
2022-10-11T13:38:01.501Z,101187.50
2022-10-11T13:40:30.103Z,101185.81
2022-10-11T13:42:57.568Z,101176.25
2022-10-11T13:45:27.074Z,101182.31
2022-10-11T13:47:55.052Z,101170.03
2022-10-11T13:50:33.543Z,101168.31
2022-10-11T13:58:44.715Z,101145.75
2022-10-11T14:01:36.179Z,101142.34
2022-10-11T14:04:06.409Z,101133.59
2022-10-11T14:09:32.241Z,101137.00
2022-10-11T14:15:05.009Z,101138.81
2022-10-11T14:17:42.841Z,101135.31
2022-10-11T14:22:46.426Z,101124.78
2022-10-11T14:25:13.366Z,101128.31
2022-10-11T14:27:40.199Z,101128.41
2022-10-11T14:30:30.193Z,101132.94
2022-10-11T14:32:59.786Z,101124.41
2022-10-11T14:35:30.479Z,101121.94
2022-10-11T14:37:57.634Z,101116.84
2022-10-11T14:40:27.611Z,101120.41
2022-10-11T14:42:55.157Z,101112.56
2022-10-11T14:45:22.005Z,101110.91
2022-10-11T14:47:49.472Z,101110.94
2022-10-11T14:52:52.993Z,101106.63
2022-10-11T14:55:19.580Z,101110.19
2022-10-11T14:57:46.658Z,101103.25
2022-10-11T15:00:21.200Z,101103.28
2022-10-11T15:02:48.469Z,101105.91
2022-10-11T15:05:15.140Z,101106.78
2022-10-11T15:07:41.893Z,101100.69
2022-10-11T15:12:56.338Z,101089.44
2022-10-11T15:15:26.477Z,101092.09
2022-10-11T15:17:56.277Z,101087.88
2022-10-11T15:23:01.097Z,101084.56
2022-10-11T15:25:29.099Z,101088.09
2022-10-11T15:27:56.738Z,101080.31
2022-10-11T15:30:27.543Z,101079.50
2022-10-11T15:32:54.496Z,101080.41
2022-10-11T15:35:23.274Z,101084.78
2022-10-11T15:37:55.461Z,101089.25
2022-10-11T15:43:01.948Z,101088.47
2022-10-11T15:45:29.252Z,101085.06
2022-10-11T15:47:56.632Z,101082.50
2022-10-11T15:50:34.879Z,101081.69
2022-10-11T15:55:45.909Z,101075.72
2022-10-11T15:58:16.942Z,101074.88
2022-10-11T16:00:45.286Z,101071.44
2022-10-11T16:03:13.878Z,101071.47
2022-10-11T16:05:41.395Z,101068.06
2022-10-11T16:08:08.345Z,101064.63
2022-10-11T16:10:35.246Z,101063.75
2022-10-11T16:13:02.150Z,101068.16
2022-10-11T16:15:29.156Z,101060.34
2022-10-11T16:17:55.894Z,101062.13
2022-10-11T16:20:24.574Z,101062.16
2022-10-11T16:22:54.016Z,101066.56
2022-10-11T16:25:21.928Z,101061.34
2022-10-11T16:27:48.552Z,101064.03
2022-10-11T16:30:16.536Z,101070.13
2022-10-11T16:32:44.463Z,101065.81
2022-10-11T16:35:13.934Z,101057.13
2022-10-11T16:37:40.923Z,101058.00
2022-10-11T16:40:09.865Z,101052.84
2022-10-11T16:42:39.007Z,101064.16
2022-10-11T16:45:06.838Z,101055.47
2022-10-11T16:47:33.486Z,101054.63
2022-10-11T16:50:00.189Z,101050.28
2022-10-11T16:52:27.078Z,101052.94
2022-10-11T16:54:53.613Z,101057.31
2022-10-11T16:57:20.492Z,101046.91
2022-10-11T16:59:47.172Z,101058.22
2022-10-11T17:02:18.092Z,101056.50
2022-10-11T17:04:45.447Z,101053.88
2022-10-11T17:07:13.117Z,101046.94
2022-10-11T17:09:43.978Z,101051.31
2022-10-11T17:12:13.177Z,101047.84
2022-10-11T17:14:41.111Z,101040.88
2022-10-11T17:17:09.767Z,101046.13
2022-10-11T17:19:42.624Z,101047.84
2022-10-11T17:22:13.104Z,101053.91
2022-10-11T17:24:39.788Z,101048.66
2022-10-11T17:27:06.998Z,101045.19
2022-10-11T17:29:34.135Z,101037.38
2022-10-11T17:32:01.475Z,101033.84
2022-10-11T17:34:28.273Z,101033.88
2022-10-11T17:36:55.014Z,101032.13
2022-10-11T17:39:23.860Z,101031.22
2022-10-11T17:41:50.983Z,101020.81
2022-10-11T17:44:18.554Z,101029.47
2022-10-11T17:46:45.620Z,101023.38
2022-10-11T17:49:13.349Z,101020.75
2022-10-11T17:51:40.763Z,101019.00
2022-10-11T17:54:12.385Z,101021.59
2022-10-11T17:56:41.335Z,101023.28
2022-10-11T17:59:11.762Z,101021.53
2022-10-11T18:01:38.546Z,101023.22
2022-10-11T18:04:06.184Z,101017.13
2022-10-11T18:06:38.118Z,101010.16
2022-10-11T18:09:05.049Z,101013.59
2022-10-11T18:11:31.950Z,101015.31
2022-10-11T18:13:58.538Z,101017.88
2022-10-11T18:16:27.831Z,101014.38
2022-10-11T18:18:57.240Z,101017.81
2022-10-11T18:21:31.216Z,101016.00
2022-10-11T18:24:12.572Z,101016.75
2022-10-11T18:26:39.375Z,101019.34
2022-10-11T18:29:05.976Z,101014.97
2022-10-11T18:31:35.085Z,101013.19
2022-10-11T18:34:04.147Z,101020.94
2022-10-11T18:36:31.835Z,101009.66
2022-10-11T18:39:02.201Z,101015.66
2022-10-11T18:41:32.038Z,101019.09
2022-10-11T18:44:00.192Z,101021.47
2022-10-11T18:46:27.735Z,101020.72
2022-10-11T18:48:55.611Z,101020.66
2022-10-11T18:51:25.833Z,101020.63
2022-10-11T18:53:53.670Z,101014.53
2022-10-11T18:56:22.354Z,101013.63
2022-10-11T18:58:50.393Z,101017.94
2022-10-11T19:01:23.035Z,101011.84
2022-10-11T19:03:52.920Z,101019.56
2022-10-11T19:06:22.512Z,101021.22
2022-10-11T19:08:53.244Z,101013.31
2022-10-11T19:11:22.313Z,101021.88
2022-10-11T19:13:56.405Z,101016.66
2022-10-11T19:16:23.702Z,101009.69
2022-10-11T19:18:52.244Z,101016.56
2022-10-11T19:21:19.562Z,101014.78
2022-10-11T19:23:48.361Z,101005.25
2022-10-11T19:26:18.754Z,101002.66
2022-10-11T19:28:46.475Z,100996.56
2022-10-11T19:31:17.055Z,101000.88
2022-10-11T19:33:45.153Z,101001.69
2022-10-11T19:36:14.149Z,100999.94
2022-10-11T19:38:45.174Z,101005.03
2022-10-11T19:41:12.820Z,101009.31
2022-10-11T19:43:39.408Z,101010.88
2022-10-11T19:46:09.573Z,101007.34
2022-10-11T19:48:38.157Z,100998.66
2022-10-11T19:53:41.660Z,101006.25
2022-10-11T19:56:12.463Z,101009.63
2022-10-11T19:58:40.215Z,101005.22
2022-10-11T20:01:12.107Z,100998.28
2022-10-11T20:03:39.204Z,101005.97
2022-10-11T20:06:07.913Z,101004.19
2022-10-11T20:08:35.618Z,101004.13
2022-10-11T20:11:05.259Z,100998.88
2022-10-11T20:13:34.832Z,101004.84
2022-10-11T20:18:41.419Z,100999.59
2022-10-11T20:21:12.153Z,101002.97
2022-10-11T20:26:11.714Z,101007.72
2022-10-11T20:28:39.713Z,100997.50
2022-10-11T20:31:26.257Z,101005.09
2022-10-11T20:33:56.921Z,100999.00
2022-10-11T20:36:24.968Z,101002.28
2022-10-11T20:38:52.441Z,101010.81
2022-10-11T20:41:23.451Z,101007.22
2022-10-11T20:43:52.705Z,101004.50
2022-10-11T20:46:21.904Z,101005.31
2022-10-11T20:48:51.489Z,101001.78
2022-10-11T20:51:18.712Z,101001.69
2022-10-11T20:53:45.471Z,101005.09
2022-10-11T20:56:15.149Z,101008.50
2022-10-11T20:58:42.265Z,101009.28
2022-10-11T21:03:46.450Z,101009.19
2022-10-11T21:06:13.186Z,100998.75
2022-10-11T21:08:40.325Z,100993.59
2022-10-11T21:11:07.898Z,100989.19
2022-10-11T21:13:35.171Z,100997.72
2022-10-11T21:16:07.983Z,100990.84
2022-10-11T21:18:34.776Z,100987.34
2022-10-11T21:21:12.307Z,100979.53
2022-10-11T21:23:39.975Z,100971.78
2022-10-11T21:26:09.449Z,100970.88
2022-10-11T21:28:36.320Z,100972.56
2022-10-11T21:31:09.406Z,100975.13
2022-10-11T21:33:36.793Z,100968.22
2022-10-11T21:36:05.313Z,100965.66
2022-10-11T21:38:31.968Z,100959.59
2022-10-11T21:40:58.536Z,100959.59
2022-10-11T21:43:25.070Z,100967.31
2022-10-11T21:45:51.810Z,100960.28
2022-10-11T21:48:18.337Z,100961.88
2022-10-11T21:50:44.891Z,100960.03
2022-10-11T21:53:11.426Z,100963.41
2022-10-11T21:55:37.927Z,100962.47
2022-10-11T21:58:06.362Z,100958.16
2022-10-11T22:00:32.908Z,100954.66
2022-10-11T22:02:59.512Z,100953.81
2022-10-11T22:05:26.072Z,100960.75
2022-10-11T22:07:52.683Z,100960.75
2022-10-11T22:10:19.425Z,100952.16
2022-10-11T22:12:45.960Z,100952.16
2022-10-11T22:15:12.557Z,100953.88
2022-10-11T22:17:39.103Z,100953.03
2022-10-11T22:20:05.980Z,100950.44
2022-10-11T22:22:32.888Z,100957.38
2022-10-11T22:24:59.709Z,100942.72
2022-10-11T22:27:26.262Z,100945.28
2022-10-11T22:29:52.780Z,100942.66
2022-10-11T22:32:19.316Z,100943.47
2022-10-11T22:34:45.881Z,100943.44
2022-10-11T22:37:12.412Z,100940.78
2022-10-11T22:39:39.122Z,100935.59
2022-10-11T22:42:05.736Z,100934.63
2022-10-11T22:44:32.387Z,100929.44
2022-10-11T22:46:58.988Z,100930.22
2022-10-11T22:49:25.563Z,100927.56
2022-10-11T22:51:52.165Z,100929.22
2022-10-11T22:54:18.705Z,100930.03
2022-10-11T22:56:45.254Z,100922.19
2022-10-11T22:59:11.782Z,100928.16
2022-10-11T23:01:38.317Z,100923.78
2022-10-11T23:04:04.883Z,100919.44
2022-10-11T23:06:32.009Z,100927.16
2022-10-11T23:08:58.548Z,100927.06
2022-10-11T23:11:25.072Z,100918.44
2022-10-11T23:13:51.653Z,100916.69
2022-10-11T23:16:18.184Z,100925.25
2022-10-11T23:18:44.761Z,100923.53
2022-10-11T23:21:11.361Z,100922.66
2022-10-11T23:23:39.713Z,100916.63
2022-10-11T23:26:09.505Z,100920.03
2022-10-11T23:28:36.114Z,100920.03
2022-10-11T23:31:09.202Z,100914.03
2022-10-11T23:33:36.166Z,100911.47
2022-10-11T23:36:03.225Z,100911.47
2022-10-11T23:38:29.870Z,100912.38
2022-10-11T23:40:56.452Z,100914.06
2022-10-11T23:43:23.563Z,100914.94
2022-10-11T23:45:50.219Z,100914.06
2022-10-11T23:48:16.804Z,100913.22
2022-10-11T23:50:43.313Z,100902.03
2022-10-11T23:53:10.743Z,100903.75
2022-10-11T23:55:37.329Z,100906.31
2022-10-11T23:58:03.869Z,100903.75
